sensor_id;sensor_type;location;lat;lon;timestamp;P1;durP1;ratioP1;P2;durP2;ratioP2
28343;SDS011;15597;50.914;6.638;2023-03-05T00:00:13;6.78;;;1.23;;
28343;SDS011;15597;50.914;6.638;2023-03-05T00:02:40;3.33;;;1.20;;
28343;SDS011;15597;50.914;6.638;2023-03-05T00:05:06;5.13;;;1.17;;
28343;SDS011;15597;50.914;6.638;2023-03-05T00:07:32;5.75;;;1.42;;
28343;SDS011;15597;50.914;6.638;2023-03-05T00:09:58;5.88;;;1.23;;
28343;SDS011;15597;50.914;6.638;2023-03-05T00:12:24;6.38;;;1.17;;
28343;SDS011;15597;50.914;6.638;2023-03-05T00:14:50;5.40;;;1.10;;
28343;SDS011;15597;50.914;6.638;2023-03-05T00:17:15;5.53;;;1.48;;
28343;SDS011;15597;50.914;6.638;2023-03-05T00:19:41;6.38;;;1.55;;
28343;SDS011;15597;50.914;6.638;2023-03-05T00:22:06;6.82;;;1.25;;
28343;SDS011;15597;50.914;6.638;2023-03-05T00:24:32;6.25;;;1.35;;
28343;SDS011;15597;50.914;6.638;2023-03-05T00:26:58;4.60;;;1.17;;
28343;SDS011;15597;50.914;6.638;2023-03-05T00:29:23;7.85;;;1.13;;
28343;SDS011;15597;50.914;6.638;2023-03-05T00:31:49;5.07;;;1.38;;
28343;SDS011;15597;50.914;6.638;2023-03-05T00:34:15;5.38;;;1.23;;
28343;SDS011;15597;50.914;6.638;2023-03-05T00:36:43;4.25;;;1.17;;
28343;SDS011;15597;50.914;6.638;2023-03-05T00:39:10;8.18;;;1.20;;
28343;SDS011;15597;50.914;6.638;2023-03-05T00:41:36;8.20;;;1.20;;
28343;SDS011;15597;50.914;6.638;2023-03-05T00:44:02;6.28;;;1.10;;
28343;SDS011;15597;50.914;6.638;2023-03-05T00:46:28;3.97;;;1.08;;
28343;SDS011;15597;50.914;6.638;2023-03-05T00:48:54;5.22;;;1.20;;
28343;SDS011;15597;50.914;6.638;2023-03-05T00:51:20;8.27;;;1.23;;
28343;SDS011;15597;50.914;6.638;2023-03-05T00:53:45;4.50;;;1.23;;
28343;SDS011;15597;50.914;6.638;2023-03-05T00:56:11;6.93;;;1.42;;
28343;SDS011;15597;50.914;6.638;2023-03-05T00:58:37;6.07;;;1.33;;
28343;SDS011;15597;50.914;6.638;2023-03-05T01:01:03;5.25;;;1.10;;
28343;SDS011;15597;50.914;6.638;2023-03-05T01:03:29;6.25;;;1.60;;
28343;SDS011;15597;50.914;6.638;2023-03-05T01:05:56;6.20;;;1.13;;
28343;SDS011;15597;50.914;6.638;2023-03-05T01:08:21;4.97;;;1.15;;
28343;SDS011;15597;50.914;6.638;2023-03-05T01:10:47;7.85;;;1.73;;
28343;SDS011;15597;50.914;6.638;2023-03-05T01:13:13;6.68;;;1.10;;
28343;SDS011;15597;50.914;6.638;2023-03-05T01:15:39;3.97;;;1.30;;
28343;SDS011;15597;50.914;6.638;2023-03-05T01:18:05;5.25;;;1.40;;
28343;SDS011;15597;50.914;6.638;2023-03-05T01:20:30;9.10;;;1.48;;
28343;SDS011;15597;50.914;6.638;2023-03-05T01:22:56;6.43;;;1.50;;
28343;SDS011;15597;50.914;6.638;2023-03-05T01:25:23;7.28;;;1.35;;
28343;SDS011;15597;50.914;6.638;2023-03-05T01:27:49;5.38;;;1.48;;
28343;SDS011;15597;50.914;6.638;2023-03-05T01:30:15;6.88;;;1.20;;
28343;SDS011;15597;50.914;6.638;2023-03-05T01:32:41;7.78;;;1.60;;
28343;SDS011;15597;50.914;6.638;2023-03-05T01:35:07;4.00;;;1.17;;
28343;SDS011;15597;50.914;6.638;2023-03-05T01:37:35;3.85;;;1.35;;
28343;SDS011;15597;50.914;6.638;2023-03-05T01:40:00;2.92;;;1.05;;
28343;SDS011;15597;50.914;6.638;2023-03-05T01:42:26;4.75;;;1.23;;
28343;SDS011;15597;50.914;6.638;2023-03-05T01:45:25;3.65;;;1.13;;
28343;SDS011;15597;50.914;6.638;2023-03-05T01:47:44;9.57;;;1.40;;
28343;SDS011;15597;50.914;6.638;2023-03-05T01:50:11;4.13;;;1.27;;
28343;SDS011;15597;50.914;6.638;2023-03-05T01:52:40;7.50;;;1.35;;
28343;SDS011;15597;50.914;6.638;2023-03-05T01:55:11;3.45;;;1.10;;
28343;SDS011;15597;50.914;6.638;2023-03-05T01:57:44;4.60;;;1.20;;
28343;SDS011;15597;50.914;6.638;2023-03-05T02:00:17;5.22;;;1.20;;
28343;SDS011;15597;50.914;6.638;2023-03-05T02:02:46;5.68;;;1.20;;
28343;SDS011;15597;50.914;6.638;2023-03-05T02:05:17;7.50;;;1.17;;
28343;SDS011;15597;50.914;6.638;2023-03-05T02:07:44;6.68;;;1.23;;
28343;SDS011;15597;50.914;6.638;2023-03-05T02:10:15;7.35;;;1.30;;
28343;SDS011;15597;50.914;6.638;2023-03-05T02:12:41;7.65;;;1.42;;
28343;SDS011;15597;50.914;6.638;2023-03-05T02:15:07;3.88;;;1.05;;
28343;SDS011;15597;50.914;6.638;2023-03-05T02:17:33;5.07;;;1.20;;
28343;SDS011;15597;50.914;6.638;2023-03-05T02:20:06;5.15;;;1.15;;
28343;SDS011;15597;50.914;6.638;2023-03-05T02:22:37;4.15;;;1.20;;
28343;SDS011;15597;50.914;6.638;2023-03-05T02:25:13;3.50;;;1.00;;
28343;SDS011;15597;50.914;6.638;2023-03-05T02:27:42;4.80;;;0.95;;
28343;SDS011;15597;50.914;6.638;2023-03-05T02:30:10;5.30;;;1.20;;
28343;SDS011;15597;50.914;6.638;2023-03-05T02:32:37;5.18;;;0.85;;
28343;SDS011;15597;50.914;6.638;2023-03-05T02:35:03;4.30;;;1.00;;
28343;SDS011;15597;50.914;6.638;2023-03-05T02:37:29;4.00;;;1.10;;
28343;SDS011;15597;50.914;6.638;2023-03-05T02:39:55;8.68;;;1.20;;
28343;SDS011;15597;50.914;6.638;2023-03-05T02:42:21;4.82;;;1.10;;
28343;SDS011;15597;50.914;6.638;2023-03-05T02:44:47;3.47;;;1.15;;
28343;SDS011;15597;50.914;6.638;2023-03-05T02:47:12;7.95;;;1.10;;
28343;SDS011;15597;50.914;6.638;2023-03-05T02:49:38;4.10;;;0.95;;
28343;SDS011;15597;50.914;6.638;2023-03-05T02:52:03;4.68;;;1.20;;
28343;SDS011;15597;50.914;6.638;2023-03-05T02:54:29;9.32;;;1.20;;
28343;SDS011;15597;50.914;6.638;2023-03-05T02:56:55;7.78;;;1.20;;
28343;SDS011;15597;50.914;6.638;2023-03-05T02:59:21;3.03;;;1.00;;
28343;SDS011;15597;50.914;6.638;2023-03-05T03:01:47;6.38;;;1.10;;
28343;SDS011;15597;50.914;6.638;2023-03-05T03:04:12;4.40;;;1.30;;
28343;SDS011;15597;50.914;6.638;2023-03-05T03:06:37;5.20;;;1.17;;
28343;SDS011;15597;50.914;6.638;2023-03-05T03:09:03;4.15;;;1.10;;
28343;SDS011;15597;50.914;6.638;2023-03-05T03:11:28;5.30;;;1.00;;
28343;SDS011;15597;50.914;6.638;2023-03-05T03:13:54;3.88;;;1.20;;
28343;SDS011;15597;50.914;6.638;2023-03-05T03:16:19;7.05;;;1.13;;
28343;SDS011;15597;50.914;6.638;2023-03-05T03:18:45;9.82;;;1.25;;
28343;SDS011;15597;50.914;6.638;2023-03-05T03:21:16;5.15;;;0.98;;
28343;SDS011;15597;50.914;6.638;2023-03-05T03:23:43;7.68;;;1.35;;
28343;SDS011;15597;50.914;6.638;2023-03-05T03:26:09;3.30;;;1.00;;
28343;SDS011;15597;50.914;6.638;2023-03-05T03:28:34;6.78;;;1.13;;
28343;SDS011;15597;50.914;6.638;2023-03-05T03:31:00;3.08;;;0.93;;
28343;SDS011;15597;50.914;6.638;2023-03-05T03:33:25;8.85;;;1.40;;
28343;SDS011;15597;50.914;6.638;2023-03-05T03:35:51;8.45;;;1.73;;
28343;SDS011;15597;50.914;6.638;2023-03-05T03:38:16;7.22;;;1.13;;
28343;SDS011;15597;50.914;6.638;2023-03-05T03:40:42;3.78;;;0.95;;
28343;SDS011;15597;50.914;6.638;2023-03-05T03:43:08;5.35;;;1.20;;
28343;SDS011;15597;50.914;6.638;2023-03-05T03:45:33;2.92;;;0.93;;
28343;SDS011;15597;50.914;6.638;2023-03-05T03:47:59;7.22;;;1.20;;
28343;SDS011;15597;50.914;6.638;2023-03-05T03:50:24;4.05;;;0.95;;
28343;SDS011;15597;50.914;6.638;2023-03-05T03:52:50;4.75;;;1.25;;
28343;SDS011;15597;50.914;6.638;2023-03-05T03:55:16;2.85;;;0.75;;
28343;SDS011;15597;50.914;6.638;2023-03-05T03:57:42;4.05;;;1.02;;
28343;SDS011;15597;50.914;6.638;2023-03-05T04:00:08;8.18;;;1.30;;
28343;SDS011;15597;50.914;6.638;2023-03-05T04:02:38;5.75;;;1.52;;
28343;SDS011;15597;50.914;6.638;2023-03-05T04:05:03;5.47;;;1.42;;
28343;SDS011;15597;50.914;6.638;2023-03-05T04:07:29;7.15;;;1.10;;
28343;SDS011;15597;50.914;6.638;2023-03-05T04:09:55;5.93;;;1.42;;
28343;SDS011;15597;50.914;6.638;2023-03-05T04:12:20;5.57;;;0.95;;
28343;SDS011;15597;50.914;6.638;2023-03-05T04:14:46;3.63;;;1.10;;
28343;SDS011;15597;50.914;6.638;2023-03-05T04:17:13;6.22;;;1.40;;
28343;SDS011;15597;50.914;6.638;2023-03-05T04:19:39;5.68;;;1.42;;
28343;SDS011;15597;50.914;6.638;2023-03-05T04:22:09;9.63;;;1.65;;
28343;SDS011;15597;50.914;6.638;2023-03-05T04:24:36;3.60;;;1.00;;
28343;SDS011;15597;50.914;6.638;2023-03-05T04:27:02;3.83;;;1.10;;
28343;SDS011;15597;50.914;6.638;2023-03-05T04:29:27;6.47;;;1.17;;
28343;SDS011;15597;50.914;6.638;2023-03-05T04:31:53;6.40;;;1.25;;
28343;SDS011;15597;50.914;6.638;2023-03-05T04:34:19;5.30;;;1.10;;
28343;SDS011;15597;50.914;6.638;2023-03-05T04:36:44;5.97;;;1.50;;
28343;SDS011;15597;50.914;6.638;2023-03-05T04:39:10;4.38;;;1.00;;
28343;SDS011;15597;50.914;6.638;2023-03-05T04:41:35;9.27;;;1.35;;
28343;SDS011;15597;50.914;6.638;2023-03-05T04:44:00;7.93;;;1.42;;
28343;SDS011;15597;50.914;6.638;2023-03-05T04:46:26;8.27;;;1.20;;
28343;SDS011;15597;50.914;6.638;2023-03-05T04:48:52;6.00;;;1.25;;
28343;SDS011;15597;50.914;6.638;2023-03-05T04:51:18;6.13;;;1.20;;
28343;SDS011;15597;50.914;6.638;2023-03-05T04:53:43;5.25;;;1.25;;
28343;SDS011;15597;50.914;6.638;2023-03-05T04:56:09;8.70;;;1.40;;
28343;SDS011;15597;50.914;6.638;2023-03-05T04:58:34;6.82;;;1.25;;
28343;SDS011;15597;50.914;6.638;2023-03-05T05:01:00;6.15;;;1.10;;
28343;SDS011;15597;50.914;6.638;2023-03-05T05:03:27;5.60;;;1.20;;
28343;SDS011;15597;50.914;6.638;2023-03-05T05:05:53;6.63;;;1.02;;
28343;SDS011;15597;50.914;6.638;2023-03-05T05:08:20;4.78;;;1.00;;
28343;SDS011;15597;50.914;6.638;2023-03-05T05:10:53;4.10;;;1.10;;
28343;SDS011;15597;50.914;6.638;2023-03-05T05:13:27;8.15;;;1.42;;
28343;SDS011;15597;50.914;6.638;2023-03-05T05:15:53;5.07;;;0.93;;
28343;SDS011;15597;50.914;6.638;2023-03-05T05:18:19;3.17;;;0.88;;
28343;SDS011;15597;50.914;6.638;2023-03-05T05:20:45;4.22;;;0.80;;
28343;SDS011;15597;50.914;6.638;2023-03-05T05:23:11;3.40;;;0.93;;
28343;SDS011;15597;50.914;6.638;2023-03-05T05:25:36;3.17;;;1.05;;
28343;SDS011;15597;50.914;6.638;2023-03-05T05:28:02;8.68;;;1.77;;
28343;SDS011;15597;50.914;6.638;2023-03-05T05:30:28;5.80;;;1.23;;
28343;SDS011;15597;50.914;6.638;2023-03-05T05:32:53;3.35;;;0.90;;
28343;SDS011;15597;50.914;6.638;2023-03-05T05:35:19;9.55;;;1.73;;
28343;SDS011;15597;50.914;6.638;2023-03-05T05:37:44;7.80;;;1.50;;
28343;SDS011;15597;50.914;6.638;2023-03-05T05:40:10;9.70;;;2.15;;
28343;SDS011;15597;50.914;6.638;2023-03-05T05:42:36;7.93;;;1.67;;
28343;SDS011;15597;50.914;6.638;2023-03-05T05:45:02;9.32;;;1.60;;
28343;SDS011;15597;50.914;6.638;2023-03-05T05:47:28;6.85;;;2.13;;
28343;SDS011;15597;50.914;6.638;2023-03-05T05:49:54;6.80;;;1.33;;
28343;SDS011;15597;50.914;6.638;2023-03-05T05:52:20;8.70;;;1.50;;
28343;SDS011;15597;50.914;6.638;2023-03-05T05:54:46;9.35;;;2.08;;
28343;SDS011;15597;50.914;6.638;2023-03-05T05:57:12;3.42;;;1.05;;
28343;SDS011;15597;50.914;6.638;2023-03-05T05:59:38;4.32;;;1.23;;
28343;SDS011;15597;50.914;6.638;2023-03-05T06:02:05;5.70;;;1.33;;
28343;SDS011;15597;50.914;6.638;2023-03-05T06:04:32;5.80;;;1.05;;
28343;SDS011;15597;50.914;6.638;2023-03-05T06:06:58;7.03;;;1.70;;
28343;SDS011;15597;50.914;6.638;2023-03-05T06:09:24;8.23;;;2.20;;
28343;SDS011;15597;50.914;6.638;2023-03-05T06:11:50;7.53;;;2.55;;
28343;SDS011;15597;50.914;6.638;2023-03-05T06:14:16;11.88;;;2.30;;
28343;SDS011;15597;50.914;6.638;2023-03-05T06:16:42;6.72;;;2.20;;
28343;SDS011;15597;50.914;6.638;2023-03-05T06:19:10;4.55;;;1.23;;
28343;SDS011;15597;50.914;6.638;2023-03-05T06:21:36;7.88;;;2.55;;
28343;SDS011;15597;50.914;6.638;2023-03-05T06:24:02;6.78;;;1.77;;
28343;SDS011;15597;50.914;6.638;2023-03-05T06:26:28;4.78;;;1.50;;
28343;SDS011;15597;50.914;6.638;2023-03-05T06:28:53;10.95;;;3.05;;
28343;SDS011;15597;50.914;6.638;2023-03-05T06:31:23;10.07;;;3.00;;
28343;SDS011;15597;50.914;6.638;2023-03-05T06:33:50;12.05;;;3.10;;
28343;SDS011;15597;50.914;6.638;2023-03-05T06:36:18;8.25;;;2.63;;
28343;SDS011;15597;50.914;6.638;2023-03-05T06:38:46;5.53;;;1.33;;
28343;SDS011;15597;50.914;6.638;2023-03-05T06:41:13;5.72;;;1.25;;
28343;SDS011;15597;50.914;6.638;2023-03-05T06:43:41;9.50;;;1.92;;
28343;SDS011;15597;50.914;6.638;2023-03-05T06:48:44;3.75;;;1.23;;
28343;SDS011;15597;50.914;6.638;2023-03-05T06:51:21;5.40;;;1.38;;
28343;SDS011;15597;50.914;6.638;2023-03-05T06:53:49;10.57;;;2.28;;
28343;SDS011;15597;50.914;6.638;2023-03-05T06:56:16;3.45;;;1.10;;
28343;SDS011;15597;50.914;6.638;2023-03-05T06:58:42;6.13;;;1.60;;
28343;SDS011;15597;50.914;6.638;2023-03-05T07:01:10;11.30;;;2.70;;
28343;SDS011;15597;50.914;6.638;2023-03-05T07:03:36;8.48;;;2.60;;
28343;SDS011;15597;50.914;6.638;2023-03-05T07:06:04;8.38;;;2.40;;
28343;SDS011;15597;50.914;6.638;2023-03-05T07:08:32;6.53;;;2.20;;
28343;SDS011;15597;50.914;6.638;2023-03-05T07:10:58;7.35;;;2.03;;
28343;SDS011;15597;50.914;6.638;2023-03-05T07:13:24;6.82;;;1.48;;
28343;SDS011;15597;50.914;6.638;2023-03-05T07:15:50;6.22;;;1.95;;
28343;SDS011;15597;50.914;6.638;2023-03-05T07:18:15;7.55;;;1.88;;
28343;SDS011;15597;50.914;6.638;2023-03-05T07:20:41;7.28;;;2.05;;
28343;SDS011;15597;50.914;6.638;2023-03-05T07:23:06;8.15;;;1.75;;
28343;SDS011;15597;50.914;6.638;2023-03-05T07:25:34;7.85;;;1.80;;
28343;SDS011;15597;50.914;6.638;2023-03-05T07:28:00;9.70;;;2.20;;
28343;SDS011;15597;50.914;6.638;2023-03-05T07:30:27;8.07;;;2.72;;
28343;SDS011;15597;50.914;6.638;2023-03-05T07:32:52;10.82;;;2.75;;
28343;SDS011;15597;50.914;6.638;2023-03-05T07:35:18;6.35;;;1.77;;
28343;SDS011;15597;50.914;6.638;2023-03-05T07:37:43;8.13;;;1.60;;
28343;SDS011;15597;50.914;6.638;2023-03-05T07:40:09;4.82;;;1.15;;
28343;SDS011;15597;50.914;6.638;2023-03-05T07:42:35;4.43;;;1.40;;
28343;SDS011;15597;50.914;6.638;2023-03-05T07:45:11;10.07;;;2.25;;
28343;SDS011;15597;50.914;6.638;2023-03-05T07:47:37;8.10;;;1.70;;
28343;SDS011;15597;50.914;6.638;2023-03-05T07:50:03;10.30;;;2.83;;
28343;SDS011;15597;50.914;6.638;2023-03-05T07:52:29;7.97;;;2.53;;
28343;SDS011;15597;50.914;6.638;2023-03-05T07:54:55;11.80;;;2.92;;
28343;SDS011;15597;50.914;6.638;2023-03-05T07:57:20;10.82;;;2.13;;
28343;SDS011;15597;50.914;6.638;2023-03-05T07:59:46;6.28;;;1.60;;
28343;SDS011;15597;50.914;6.638;2023-03-05T08:02:12;7.18;;;2.03;;
28343;SDS011;15597;50.914;6.638;2023-03-05T08:04:41;8.10;;;2.22;;
28343;SDS011;15597;50.914;6.638;2023-03-05T08:07:12;7.47;;;2.28;;
28343;SDS011;15597;50.914;6.638;2023-03-05T08:09:38;9.23;;;2.45;;
28343;SDS011;15597;50.914;6.638;2023-03-05T08:12:04;10.07;;;2.85;;
28343;SDS011;15597;50.914;6.638;2023-03-05T08:14:30;9.43;;;1.92;;
28343;SDS011;15597;50.914;6.638;2023-03-05T08:16:55;4.68;;;1.50;;
28343;SDS011;15597;50.914;6.638;2023-03-05T08:19:21;6.32;;;1.83;;
28343;SDS011;15597;50.914;6.638;2023-03-05T08:21:46;7.53;;;1.63;;
28343;SDS011;15597;50.914;6.638;2023-03-05T08:24:12;4.35;;;1.52;;
28343;SDS011;15597;50.914;6.638;2023-03-05T08:26:39;11.02;;;2.47;;
28343;SDS011;15597;50.914;6.638;2023-03-05T08:29:06;6.50;;;1.58;;
28343;SDS011;15597;50.914;6.638;2023-03-05T08:31:32;5.60;;;1.90;;
28343;SDS011;15597;50.914;6.638;2023-03-05T08:33:59;6.43;;;2.08;;
28343;SDS011;15597;50.914;6.638;2023-03-05T08:36:26;7.50;;;1.60;;
28343;SDS011;15597;50.914;6.638;2023-03-05T08:38:52;12.40;;;3.55;;
28343;SDS011;15597;50.914;6.638;2023-03-05T08:41:18;7.03;;;1.80;;
28343;SDS011;15597;50.914;6.638;2023-03-05T08:43:44;5.22;;;1.40;;
28343;SDS011;15597;50.914;6.638;2023-03-05T08:46:10;15.98;;;3.53;;
28343;SDS011;15597;50.914;6.638;2023-03-05T08:48:36;8.93;;;3.22;;
28343;SDS011;15597;50.914;6.638;2023-03-05T08:51:09;12.90;;;3.50;;
28343;SDS011;15597;50.914;6.638;2023-03-05T08:53:37;8.88;;;2.60;;
28343;SDS011;15597;50.914;6.638;2023-03-05T08:56:02;6.80;;;2.53;;
28343;SDS011;15597;50.914;6.638;2023-03-05T08:58:28;6.97;;;2.28;;
28343;SDS011;15597;50.914;6.638;2023-03-05T09:00:54;5.28;;;2.00;;
28343;SDS011;15597;50.914;6.638;2023-03-05T09:03:20;4.90;;;1.73;;
28343;SDS011;15597;50.914;6.638;2023-03-05T09:05:46;5.68;;;1.80;;
28343;SDS011;15597;50.914;6.638;2023-03-05T09:08:12;8.55;;;2.28;;
28343;SDS011;15597;50.914;6.638;2023-03-05T09:10:40;9.93;;;3.22;;
28343;SDS011;15597;50.914;6.638;2023-03-05T09:13:06;7.88;;;1.77;;
28343;SDS011;15597;50.914;6.638;2023-03-05T09:15:32;7.47;;;2.53;;
28343;SDS011;15597;50.914;6.638;2023-03-05T09:17:57;5.20;;;1.65;;
28343;SDS011;15597;50.914;6.638;2023-03-05T09:20:23;10.18;;;3.03;;
28343;SDS011;15597;50.914;6.638;2023-03-05T09:22:52;12.30;;;2.90;;
28343;SDS011;15597;50.914;6.638;2023-03-05T09:25:18;9.00;;;3.17;;
28343;SDS011;15597;50.914;6.638;2023-03-05T09:27:44;7.35;;;2.67;;
28343;SDS011;15597;50.914;6.638;2023-03-05T09:30:10;8.57;;;3.25;;
28343;SDS011;15597;50.914;6.638;2023-03-05T09:32:36;8.93;;;3.30;;
28343;SDS011;15597;50.914;6.638;2023-03-05T09:35:02;6.07;;;1.88;;
28343;SDS011;15597;50.914;6.638;2023-03-05T09:37:27;9.23;;;2.33;;
28343;SDS011;15597;50.914;6.638;2023-03-05T09:39:53;8.70;;;2.88;;
28343;SDS011;15597;50.914;6.638;2023-03-05T09:50:51;12.52;;;4.78;;
28343;SDS011;15597;50.914;6.638;2023-03-05T09:53:30;9.45;;;3.42;;
28343;SDS011;15597;50.914;6.638;2023-03-05T09:55:58;9.52;;;3.95;;
28343;SDS011;15597;50.914;6.638;2023-03-05T09:58:39;7.15;;;2.53;;
28343;SDS011;15597;50.914;6.638;2023-03-05T10:06:36;9.25;;;3.28;;
28343;SDS011;15597;50.914;6.638;2023-03-05T10:11:39;7.43;;;3.25;;
28343;SDS011;15597;50.914;6.638;2023-03-05T10:14:23;7.43;;;2.67;;
28343;SDS011;15597;50.914;6.638;2023-03-05T10:16:59;8.05;;;2.80;;
28343;SDS011;15597;50.914;6.638;2023-03-05T10:22:21;6.40;;;2.97;;
28343;SDS011;15597;50.914;6.638;2023-03-05T10:25:13;8.40;;;2.95;;
28343;SDS011;15597;50.914;6.638;2023-03-05T10:27:57;7.20;;;2.53;;
28343;SDS011;15597;50.914;6.638;2023-03-05T10:30:31;7.03;;;2.63;;
28343;SDS011;15597;50.914;6.638;2023-03-05T10:41:15;4.93;;;2.00;;
28343;SDS011;15597;50.914;6.638;2023-03-05T10:46:48;6.80;;;2.92;;
28343;SDS011;15597;50.914;6.638;2023-03-05T10:49:16;5.88;;;2.30;;
28343;SDS011;15597;50.914;6.638;2023-03-05T10:51:51;8.45;;;4.50;;
28343;SDS011;15597;50.914;6.638;2023-03-05T10:54:30;10.13;;;4.20;;
28343;SDS011;15597;50.914;6.638;2023-03-05T10:59:28;8.25;;;3.70;;
28343;SDS011;15597;50.914;6.638;2023-03-05T11:02:01;6.43;;;2.17;;
28343;SDS011;15597;50.914;6.638;2023-03-05T11:04:36;9.93;;;5.50;;
28343;SDS011;15597;50.914;6.638;2023-03-05T11:07:27;9.35;;;3.00;;
28343;SDS011;15597;50.914;6.638;2023-03-05T11:12:27;5.22;;;1.70;;
28343;SDS011;15597;50.914;6.638;2023-03-05T11:25:54;7.60;;;4.57;;
28343;SDS011;15597;50.914;6.638;2023-03-05T11:28:38;10.25;;;4.10;;
28343;SDS011;15597;50.914;6.638;2023-03-05T11:34:00;8.32;;;3.83;;
28343;SDS011;15597;50.914;6.638;2023-03-05T11:44:09;7.53;;;4.07;;
28343;SDS011;15597;50.914;6.638;2023-03-05T11:46:42;8.93;;;3.50;;
28343;SDS011;15597;50.914;6.638;2023-03-05T11:49:13;8.75;;;3.90;;
28343;SDS011;15597;50.914;6.638;2023-03-05T11:51:44;6.43;;;3.05;;
28343;SDS011;15597;50.914;6.638;2023-03-05T11:54:21;10.55;;;4.50;;
28343;SDS011;15597;50.914;6.638;2023-03-05T11:56:53;12.75;;;5.65;;
28343;SDS011;15597;50.914;6.638;2023-03-05T11:59:22;9.43;;;4.38;;
28343;SDS011;15597;50.914;6.638;2023-03-05T12:01:54;7.35;;;3.20;;
28343;SDS011;15597;50.914;6.638;2023-03-05T12:04:21;10.43;;;5.03;;
28343;SDS011;15597;50.914;6.638;2023-03-05T12:09:25;10.18;;;5.50;;
28343;SDS011;15597;50.914;6.638;2023-03-05T12:11:55;8.50;;;3.58;;
28343;SDS011;15597;50.914;6.638;2023-03-05T12:14:28;6.97;;;3.00;;
28343;SDS011;15597;50.914;6.638;2023-03-05T12:17:16;9.40;;;5.20;;
28343;SDS011;15597;50.914;6.638;2023-03-05T12:22:42;7.65;;;2.65;;
28343;SDS011;15597;50.914;6.638;2023-03-05T12:27:56;10.38;;;4.05;;
28343;SDS011;15597;50.914;6.638;2023-03-05T12:30:57;11.73;;;5.78;;
28343;SDS011;15597;50.914;6.638;2023-03-05T12:33:28;7.57;;;2.90;;
28343;SDS011;15597;50.914;6.638;2023-03-05T12:38:47;9.85;;;5.32;;
28343;SDS011;15597;50.914;6.638;2023-03-05T12:51:45;13.50;;;5.68;;
28343;SDS011;15597;50.914;6.638;2023-03-05T12:56:59;7.95;;;3.72;;
28343;SDS011;15597;50.914;6.638;2023-03-05T12:59:42;9.45;;;4.25;;
28343;SDS011;15597;50.914;6.638;2023-03-05T13:02:26;11.55;;;5.30;;
28343;SDS011;15597;50.914;6.638;2023-03-05T13:04:59;13.75;;;7.18;;
28343;SDS011;15597;50.914;6.638;2023-03-05T13:07:28;12.93;;;6.35;;
28343;SDS011;15597;50.914;6.638;2023-03-05T13:09:55;7.15;;;3.40;;
28343;SDS011;15597;50.914;6.638;2023-03-05T13:12:22;6.32;;;3.00;;
28343;SDS011;15597;50.914;6.638;2023-03-05T13:14:55;7.65;;;4.20;;
28343;SDS011;15597;50.914;6.638;2023-03-05T13:17:33;8.68;;;3.40;;
28343;SDS011;15597;50.914;6.638;2023-03-05T13:20:00;10.82;;;5.20;;
28343;SDS011;15597;50.914;6.638;2023-03-05T13:22:30;12.00;;;4.90;;
28343;SDS011;15597;50.914;6.638;2023-03-05T13:25:15;7.70;;;3.65;;
28343;SDS011;15597;50.914;6.638;2023-03-05T13:27:46;8.50;;;4.00;;
28343;SDS011;15597;50.914;6.638;2023-03-05T13:30:22;7.47;;;3.30;;
28343;SDS011;15597;50.914;6.638;2023-03-05T13:32:50;8.05;;;3.75;;
28343;SDS011;15597;50.914;6.638;2023-03-05T13:35:19;8.52;;;4.15;;
28343;SDS011;15597;50.914;6.638;2023-03-05T13:37:45;6.63;;;3.40;;
28343;SDS011;15597;50.914;6.638;2023-03-05T13:40:21;7.13;;;3.35;;
28343;SDS011;15597;50.914;6.638;2023-03-05T13:42:50;7.28;;;3.67;;
28343;SDS011;15597;50.914;6.638;2023-03-05T13:45:25;9.88;;;3.90;;
28343;SDS011;15597;50.914;6.638;2023-03-05T13:47:56;8.60;;;4.60;;
28343;SDS011;15597;50.914;6.638;2023-03-05T13:50:31;9.93;;;4.68;;
28343;SDS011;15597;50.914;6.638;2023-03-05T14:01:22;6.65;;;3.20;;
28343;SDS011;15597;50.914;6.638;2023-03-05T14:03:51;5.82;;;3.17;;
28343;SDS011;15597;50.914;6.638;2023-03-05T14:06:21;7.03;;;3.08;;
28343;SDS011;15597;50.914;6.638;2023-03-05T14:08:53;5.50;;;3.05;;
28343;SDS011;15597;50.914;6.638;2023-03-05T14:11:28;6.80;;;3.25;;
28343;SDS011;15597;50.914;6.638;2023-03-05T14:13:59;7.65;;;3.60;;
28343;SDS011;15597;50.914;6.638;2023-03-05T14:16:30;7.28;;;3.70;;
28343;SDS011;15597;50.914;6.638;2023-03-05T14:18:58;6.95;;;3.17;;
28343;SDS011;15597;50.914;6.638;2023-03-05T14:21:43;6.82;;;3.50;;
28343;SDS011;15597;50.914;6.638;2023-03-05T14:24:19;9.70;;;4.07;;
28343;SDS011;15597;50.914;6.638;2023-03-05T14:26:48;8.68;;;3.92;;
28343;SDS011;15597;50.914;6.638;2023-03-05T14:34:55;9.68;;;4.38;;
28343;SDS011;15597;50.914;6.638;2023-03-05T14:40:15;10.38;;;5.57;;
28343;SDS011;15597;50.914;6.638;2023-03-05T14:45:26;8.48;;;4.05;;
28343;SDS011;15597;50.914;6.638;2023-03-05T14:47:55;12.50;;;5.70;;
28343;SDS011;15597;50.914;6.638;2023-03-05T14:50:23;8.88;;;4.13;;
28343;SDS011;15597;50.914;6.638;2023-03-05T14:52:52;6.75;;;2.97;;
28343;SDS011;15597;50.914;6.638;2023-03-05T14:55:21;7.95;;;3.95;;
28343;SDS011;15597;50.914;6.638;2023-03-05T14:57:49;7.57;;;3.28;;
28343;SDS011;15597;50.914;6.638;2023-03-05T15:00:17;10.05;;;4.90;;
28343;SDS011;15597;50.914;6.638;2023-03-05T15:02:44;6.80;;;3.45;;
28343;SDS011;15597;50.914;6.638;2023-03-05T15:05:10;8.15;;;4.10;;
28343;SDS011;15597;50.914;6.638;2023-03-05T15:07:35;9.98;;;4.25;;
28343;SDS011;15597;50.914;6.638;2023-03-05T15:10:01;9.05;;;4.28;;
28343;SDS011;15597;50.914;6.638;2023-03-05T15:12:28;8.77;;;4.13;;
28343;SDS011;15597;50.914;6.638;2023-03-05T15:14:54;7.93;;;4.38;;
28343;SDS011;15597;50.914;6.638;2023-03-05T15:17:33;13.90;;;7.22;;
28343;SDS011;15597;50.914;6.638;2023-03-05T15:20:01;11.20;;;5.63;;
28343;SDS011;15597;50.914;6.638;2023-03-05T15:22:34;10.55;;;5.38;;
28343;SDS011;15597;50.914;6.638;2023-03-05T15:25:00;12.02;;;6.35;;
28343;SDS011;15597;50.914;6.638;2023-03-05T15:27:26;8.05;;;3.53;;
28343;SDS011;15597;50.914;6.638;2023-03-05T15:29:52;14.80;;;7.60;;
28343;SDS011;15597;50.914;6.638;2023-03-05T15:32:18;20.42;;;9.30;;
28343;SDS011;15597;50.914;6.638;2023-03-05T15:34:43;11.77;;;5.88;;
28343;SDS011;15597;50.914;6.638;2023-03-05T15:37:09;12.60;;;6.18;;
28343;SDS011;15597;50.914;6.638;2023-03-05T15:39:35;10.45;;;4.75;;
28343;SDS011;15597;50.914;6.638;2023-03-05T15:42:00;8.38;;;4.15;;
28343;SDS011;15597;50.914;6.638;2023-03-05T15:44:26;12.07;;;6.03;;
28343;SDS011;15597;50.914;6.638;2023-03-05T15:46:52;8.63;;;4.00;;
28343;SDS011;15597;50.914;6.638;2023-03-05T15:49:18;9.63;;;4.90;;
28343;SDS011;15597;50.914;6.638;2023-03-05T15:51:45;8.02;;;4.00;;
28343;SDS011;15597;50.914;6.638;2023-03-05T15:54:10;14.68;;;6.20;;
28343;SDS011;15597;50.914;6.638;2023-03-05T15:56:36;13.35;;;6.03;;
28343;SDS011;15597;50.914;6.638;2023-03-05T15:59:02;11.85;;;4.93;;
28343;SDS011;15597;50.914;6.638;2023-03-05T16:01:27;11.20;;;4.88;;
28343;SDS011;15597;50.914;6.638;2023-03-05T16:06:21;10.30;;;5.10;;
28343;SDS011;15597;50.914;6.638;2023-03-05T16:08:50;9.63;;;5.10;;
28343;SDS011;15597;50.914;6.638;2023-03-05T16:11:19;10.90;;;6.30;;
28343;SDS011;15597;50.914;6.638;2023-03-05T16:13:45;9.43;;;5.38;;
28343;SDS011;15597;50.914;6.638;2023-03-05T16:16:14;10.00;;;4.82;;
28343;SDS011;15597;50.914;6.638;2023-03-05T16:18:40;7.85;;;3.65;;
28343;SDS011;15597;50.914;6.638;2023-03-05T16:23:37;7.35;;;3.63;;
28343;SDS011;15597;50.914;6.638;2023-03-05T16:26:06;14.05;;;6.57;;
28343;SDS011;15597;50.914;6.638;2023-03-05T16:28:34;7.15;;;3.42;;
28343;SDS011;15597;50.914;6.638;2023-03-05T16:30:59;10.95;;;5.22;;
28343;SDS011;15597;50.914;6.638;2023-03-05T16:33:25;7.45;;;3.83;;
28343;SDS011;15597;50.914;6.638;2023-03-05T16:36:11;8.18;;;3.67;;
28343;SDS011;15597;50.914;6.638;2023-03-05T16:41:12;6.25;;;3.22;;